createdAt,value
2022-11-14T00:02:26.601Z,2.30
2022-11-14T00:05:13.136Z,2.10
2022-11-14T00:08:01.527Z,2.13
2022-11-14T00:10:49.231Z,1.90
2022-11-14T00:13:36.697Z,2.07
2022-11-14T00:16:23.201Z,2.00
2022-11-14T00:19:09.816Z,2.03
2022-11-14T00:21:56.345Z,1.73
2022-11-14T00:24:44.033Z,2.30
2022-11-14T00:27:30.496Z,2.10
2022-11-14T00:30:17.446Z,2.40
2022-11-14T00:33:03.851Z,2.10
2022-11-14T00:35:54.251Z,2.47
2022-11-14T00:38:41.019Z,2.30
2022-11-14T00:41:29.160Z,2.00
2022-11-14T00:44:15.665Z,1.80
2022-11-14T00:47:02.375Z,2.40
2022-11-14T00:49:49.211Z,2.23
2022-11-14T00:52:35.662Z,2.03
2022-11-14T00:55:22.104Z,2.30
2022-11-14T00:58:10.374Z,2.43
2022-11-14T01:00:57.156Z,1.80
2022-11-14T01:03:43.570Z,1.80
2022-11-14T01:06:30.131Z,1.70
2022-11-14T01:09:16.542Z,2.00
2022-11-14T01:12:03.277Z,2.23
2022-11-14T01:14:51.241Z,2.23
2022-11-14T01:17:38.146Z,2.30
2022-11-14T01:20:24.618Z,2.20
2022-11-14T01:23:12.657Z,2.50
2022-11-14T01:26:02.949Z,2.07
2022-11-14T01:28:49.727Z,1.77
2022-11-14T01:31:37.712Z,2.30
2022-11-14T01:34:24.761Z,2.17
2022-11-14T01:37:11.298Z,2.00
2022-11-14T01:39:57.615Z,1.80
2022-11-14T01:42:44.396Z,1.97
2022-11-14T01:45:53.415Z,2.47
2022-11-14T01:48:44.005Z,1.80
2022-11-14T01:51:32.952Z,1.87
2022-11-14T01:54:23.320Z,1.90
2022-11-14T01:57:10.862Z,1.80
2022-11-14T02:00:00.936Z,1.73
2022-11-14T02:02:47.729Z,2.20
2022-11-14T02:05:36.191Z,1.93
2022-11-14T02:08:23.210Z,1.90
2022-11-14T02:11:11.638Z,2.00
2022-11-14T02:13:59.150Z,2.00
2022-11-14T02:17:01.030Z,1.50
2022-11-14T02:19:54.624Z,2.47
2022-11-14T02:22:43.240Z,2.40
2022-11-14T02:25:30.148Z,2.13
2022-11-14T02:28:16.903Z,2.17
2022-11-14T02:31:03.315Z,1.90
2022-11-14T02:33:49.726Z,2.10
2022-11-14T02:36:36.449Z,2.00
2022-11-14T02:39:24.671Z,2.20
2022-11-14T02:42:11.171Z,2.20
2022-11-14T02:44:57.640Z,2.03
2022-11-14T02:47:44.065Z,1.60
2022-11-14T02:50:30.813Z,2.30
2022-11-14T02:53:17.467Z,1.83
2022-11-14T02:56:05.809Z,2.40
2022-11-14T02:58:52.541Z,2.00
2022-11-14T03:01:38.909Z,1.93
2022-11-14T03:04:25.389Z,2.30
2022-11-14T03:07:12.618Z,2.60
2022-11-14T03:09:59.166Z,2.30
2022-11-14T03:12:47.251Z,1.90
2022-11-14T03:15:34.079Z,2.10
2022-11-14T03:18:20.753Z,1.80
2022-11-14T03:21:07.711Z,2.20
2022-11-14T03:23:54.016Z,2.30
2022-11-14T03:26:40.713Z,1.83
2022-11-14T03:29:29.030Z,2.20
2022-11-14T03:32:15.452Z,2.27
2022-11-14T03:35:02.051Z,2.53
2022-11-14T03:37:50.897Z,1.87
2022-11-14T03:40:40.779Z,2.20
2022-11-14T03:43:28.078Z,2.30
2022-11-14T03:46:16.003Z,2.40
2022-11-14T03:49:03.194Z,1.90
2022-11-14T03:51:50.712Z,2.17
2022-11-14T03:54:37.037Z,2.07
2022-11-14T03:57:23.337Z,2.00
2022-11-14T04:00:11.264Z,2.30
2022-11-14T04:02:59.034Z,1.90
2022-11-14T04:05:46.108Z,2.30
2022-11-14T04:08:33.554Z,2.10
2022-11-14T04:11:21.007Z,1.63
2022-11-14T04:14:07.368Z,2.70
2022-11-14T04:16:54.078Z,2.13
2022-11-14T04:19:42.191Z,2.57
2022-11-14T04:22:28.544Z,1.80
2022-11-14T04:25:15.245Z,1.90
2022-11-14T04:28:01.616Z,2.10
2022-11-14T04:30:47.926Z,2.30
2022-11-14T04:33:34.397Z,2.30
2022-11-14T04:36:22.487Z,1.80
2022-11-14T04:39:12.536Z,1.80
2022-11-14T04:41:58.853Z,2.10
2022-11-14T04:44:45.664Z,2.30
2022-11-14T04:47:32.313Z,1.93
2022-11-14T04:50:18.956Z,2.00
2022-11-14T04:53:06.885Z,1.73
2022-11-14T04:55:57.014Z,2.40
2022-11-14T04:58:43.553Z,2.10
2022-11-14T05:01:30.248Z,1.87
2022-11-14T05:04:17.210Z,2.80
2022-11-14T05:07:04.303Z,2.30
2022-11-14T05:09:52.318Z,1.80
2022-11-14T05:12:38.826Z,1.97
2022-11-14T05:15:25.536Z,2.00
2022-11-14T05:18:12.313Z,1.93
2022-11-14T05:21:00.056Z,2.23
2022-11-14T05:23:46.563Z,2.00
2022-11-14T05:26:34.358Z,2.80
2022-11-14T05:29:21.091Z,1.67
2022-11-14T05:32:09.302Z,2.13
2022-11-14T05:34:58.981Z,2.17
2022-11-14T05:37:45.645Z,1.90
2022-11-14T05:40:32.405Z,1.97
2022-11-14T05:43:20.631Z,2.17
2022-11-14T05:46:10.380Z,1.90
2022-11-14T05:48:56.861Z,2.60
2022-11-14T05:51:43.582Z,2.00
2022-11-14T05:54:30.251Z,2.50
2022-11-14T05:57:16.984Z,2.20
2022-11-14T06:00:05.233Z,1.97
2022-11-14T06:02:53.712Z,1.93
2022-11-14T06:05:40.574Z,2.20
2022-11-14T06:08:29.170Z,2.60
2022-11-14T06:11:17.543Z,2.40
2022-11-14T06:14:08.397Z,2.30
2022-11-14T06:16:58.887Z,2.13
2022-11-14T06:19:46.155Z,2.70
2022-11-14T06:22:33.368Z,2.77
2022-11-14T06:25:20.223Z,2.27
2022-11-14T06:28:06.924Z,2.50
2022-11-14T06:30:58.175Z,2.33
2022-11-14T06:33:46.676Z,2.90
2022-11-14T06:36:33.364Z,2.33
2022-11-14T06:39:20.170Z,2.80
2022-11-14T06:42:07.112Z,2.47
2022-11-14T06:44:53.644Z,1.83
2022-11-14T06:47:40.167Z,2.00
2022-11-14T06:50:28.496Z,2.20
2022-11-14T06:53:15.176Z,2.23
2022-11-14T06:56:03.566Z,1.90
2022-11-14T06:58:51.222Z,2.67
2022-11-14T07:01:37.865Z,2.23
2022-11-14T07:04:24.507Z,2.23
2022-11-14T07:07:12.523Z,2.80
2022-11-14T07:09:59.531Z,2.53
2022-11-14T07:12:46.034Z,1.80
2022-11-14T07:15:32.929Z,2.13
2022-11-14T07:18:20.009Z,2.40
2022-11-14T07:21:07.383Z,2.23
2022-11-14T07:23:55.519Z,2.30
2022-11-14T07:26:42.318Z,2.97
2022-11-14T07:29:28.740Z,2.80
2022-11-14T07:32:15.272Z,2.70
2022-11-14T07:35:02.597Z,2.20
2022-11-14T07:37:49.895Z,2.20
2022-11-14T07:40:38.271Z,2.67
2022-11-14T07:43:25.239Z,2.43
2022-11-14T07:46:14.006Z,2.43
2022-11-14T07:49:00.475Z,1.73
2022-11-14T07:51:47.355Z,2.27
2022-11-14T07:54:34.155Z,2.60
2022-11-14T07:57:22.275Z,1.87
2022-11-14T08:00:10.794Z,2.37
2022-11-14T08:02:57.118Z,2.07
2022-11-14T08:05:43.970Z,2.30
2022-11-14T08:08:31.062Z,1.93
2022-11-14T08:11:37.884Z,2.53
2022-11-14T08:14:25.796Z,2.90
2022-11-14T08:17:12.495Z,2.40
2022-11-14T08:19:59.205Z,2.23
2022-11-14T08:22:45.774Z,2.80
2022-11-14T08:25:32.256Z,2.70
2022-11-14T08:28:18.887Z,2.10
2022-11-14T08:31:07.044Z,2.63
2022-11-14T08:33:54.020Z,2.40
2022-11-14T08:36:40.449Z,3.00
2022-11-14T08:39:27.197Z,2.90
2022-11-14T08:42:13.789Z,2.63
2022-11-14T08:45:00.602Z,2.60
2022-11-14T08:47:53.542Z,2.40
2022-11-14T08:50:40.234Z,2.20
2022-11-14T08:53:26.903Z,2.40
2022-11-14T08:56:13.997Z,2.70
2022-11-14T08:59:00.825Z,2.40
2022-11-14T09:01:47.491Z,2.73
2022-11-14T09:04:35.790Z,3.00
2022-11-14T09:07:22.767Z,2.83
2022-11-14T09:10:10.355Z,2.80
2022-11-14T09:12:57.679Z,3.50
2022-11-14T09:15:44.616Z,2.90
2022-11-14T09:18:31.780Z,2.90
2022-11-14T09:21:20.445Z,3.17
2022-11-14T09:24:07.720Z,2.93
2022-11-14T09:26:56.988Z,2.20
2022-11-14T09:29:43.731Z,2.90
2022-11-14T09:32:30.634Z,3.20
2022-11-14T09:35:18.075Z,2.70
2022-11-14T09:38:07.775Z,2.67
2022-11-14T09:41:05.006Z,2.77
2022-11-14T09:44:20.564Z,3.27
2022-11-14T09:47:10.944Z,3.27
2022-11-14T09:50:03.857Z,3.30
2022-11-14T09:52:53.740Z,3.40
2022-11-14T09:55:41.902Z,3.17
2022-11-14T09:58:29.204Z,3.70
2022-11-14T10:01:20.753Z,3.70
2022-11-14T10:04:15.517Z,3.73
2022-11-14T10:07:10.167Z,2.80
2022-11-14T10:10:05.247Z,3.40
2022-11-14T10:13:00.371Z,2.73
2022-11-14T10:15:51.338Z,2.53
2022-11-14T10:19:00.162Z,2.63
2022-11-14T10:22:07.934Z,2.63
2022-11-14T10:25:04.998Z,2.20
2022-11-14T10:28:05.501Z,2.10
2022-11-14T10:31:00.229Z,2.80
2022-11-14T10:33:52.828Z,2.70
2022-11-14T10:36:54.442Z,2.67
2022-11-14T10:39:47.385Z,2.50
2022-11-14T10:42:37.666Z,2.73
2022-11-14T10:45:29.251Z,2.10
2022-11-14T10:48:18.549Z,2.40
2022-11-14T10:51:09.113Z,2.37
2022-11-14T10:53:57.465Z,2.33
2022-11-14T10:56:47.599Z,2.70
2022-11-14T10:59:34.329Z,2.63
2022-11-14T11:02:22.372Z,2.23
2022-11-14T11:05:16.419Z,2.30
2022-11-14T11:08:42.012Z,2.50
2022-11-14T11:11:33.664Z,2.03
2022-11-14T11:14:20.840Z,2.27
2022-11-14T11:17:22.687Z,2.23
2022-11-14T11:20:31.660Z,2.53
2022-11-14T11:23:20.121Z,3.00
2022-11-14T11:26:09.518Z,2.00
2022-11-14T11:29:05.388Z,2.40
2022-11-14T11:31:53.943Z,2.00
2022-11-14T11:34:41.766Z,2.70
2022-11-14T11:37:30.573Z,2.20
2022-11-14T11:40:20.843Z,2.40
2022-11-14T11:46:24.034Z,1.67
2022-11-14T11:49:15.194Z,2.07
2022-11-14T11:52:06.124Z,1.87
2022-11-14T11:54:59.513Z,2.23
2022-11-14T11:57:49.324Z,2.60
2022-11-14T12:00:36.244Z,2.20
2022-11-14T12:03:24.256Z,2.40
2022-11-14T12:06:16.220Z,2.20
2022-11-14T12:09:14.999Z,2.43
2022-11-14T12:12:04.450Z,2.10
2022-11-14T12:15:02.069Z,2.03
2022-11-14T12:18:11.855Z,2.73
2022-11-14T12:21:12.523Z,2.20
2022-11-14T12:24:19.144Z,2.00
2022-11-14T12:27:16.598Z,2.00
2022-11-14T12:30:10.473Z,2.40
2022-11-14T12:33:01.072Z,2.30
2022-11-14T12:35:51.257Z,2.57
2022-11-14T12:38:43.331Z,2.07
2022-11-14T12:41:32.616Z,2.30
2022-11-14T12:44:24.105Z,2.10
2022-11-14T12:47:16.784Z,1.80
2022-11-14T12:50:24.700Z,2.20
2022-11-14T12:53:38.691Z,2.07
2022-11-14T12:56:55.203Z,2.00
2022-11-14T12:59:51.338Z,2.50
2022-11-14T13:02:53.159Z,2.00
2022-11-14T13:06:01.025Z,1.87
2022-11-14T13:09:07.190Z,2.00
2022-11-14T13:12:12.626Z,2.37
2022-11-14T13:15:17.472Z,2.10
2022-11-14T13:18:27.110Z,1.57
2022-11-14T13:21:45.608Z,2.20
2022-11-14T13:25:06.111Z,2.10
2022-11-14T13:28:18.877Z,1.73
2022-11-14T13:31:08.954Z,1.80
2022-11-14T13:33:59.127Z,2.10
2022-11-14T13:36:48.737Z,2.10
2022-11-14T13:39:41.805Z,1.93
2022-11-14T13:42:42.257Z,1.90
2022-11-14T13:45:43.882Z,2.23
2022-11-14T13:48:56.942Z,2.20
2022-11-14T13:51:44.611Z,1.80
2022-11-14T13:54:31.152Z,1.80
2022-11-14T13:57:28.789Z,1.60
2022-11-14T14:00:20.375Z,1.40
2022-11-14T14:03:23.005Z,1.83
2022-11-14T14:06:20.968Z,2.10
2022-11-14T14:09:14.451Z,1.50
2022-11-14T14:12:12.726Z,1.73
2022-11-14T14:15:09.195Z,1.70
2022-11-14T14:18:02.652Z,1.73
2022-11-14T14:20:56.894Z,2.40
2022-11-14T14:23:49.090Z,2.50
2022-11-14T14:26:42.398Z,2.40
2022-11-14T14:29:37.260Z,2.00
2022-11-14T14:32:25.474Z,1.47
2022-11-14T14:35:26.091Z,2.07
2022-11-14T14:38:15.276Z,2.10
2022-11-14T14:41:01.985Z,2.30
2022-11-14T14:43:53.639Z,1.60
2022-11-14T14:46:40.395Z,2.07
2022-11-14T14:49:30.620Z,1.67
2022-11-14T14:52:22.285Z,1.70
2022-11-14T14:55:20.478Z,2.10
2022-11-14T14:58:22.241Z,2.17
2022-11-14T15:01:13.618Z,1.83
2022-11-14T15:04:05.263Z,2.10
2022-11-14T15:06:52.351Z,2.50
2022-11-14T15:09:38.875Z,2.37
2022-11-14T15:12:29.009Z,1.93
2022-11-14T15:15:16.789Z,2.10
2022-11-14T15:18:06.878Z,1.73
2022-11-14T15:21:10.489Z,1.60
2022-11-14T15:24:02.052Z,1.57
2022-11-14T15:26:50.510Z,2.33
2022-11-14T15:29:47.087Z,2.37
2022-11-14T15:32:33.970Z,2.97
2022-11-14T15:35:29.348Z,2.10
2022-11-14T15:41:31.454Z,2.20
2022-11-14T15:44:30.973Z,3.00
2022-11-14T15:47:23.945Z,2.93
2022-11-14T15:50:26.334Z,2.60
2022-11-14T15:53:22.064Z,3.07
2022-11-14T15:56:12.397Z,2.90
2022-11-14T15:58:58.866Z,2.33
2022-11-14T16:01:47.499Z,3.33
2022-11-14T16:04:37.028Z,2.60
2022-11-14T16:07:23.971Z,3.77
2022-11-14T16:10:15.440Z,3.93
2022-11-14T16:13:02.114Z,3.33
2022-11-14T16:15:48.949Z,3.00
2022-11-14T16:18:35.703Z,3.17
2022-11-14T16:21:23.678Z,3.03
2022-11-14T16:24:16.861Z,2.60
2022-11-14T16:27:03.618Z,3.30
2022-11-14T16:29:50.297Z,3.80
2022-11-14T16:32:36.789Z,3.37
2022-11-14T16:35:24.852Z,3.73
2022-11-14T16:38:14.018Z,4.50
2022-11-14T16:41:01.129Z,3.40
2022-11-14T16:43:47.581Z,3.70
2022-11-14T16:46:34.191Z,2.63
2022-11-14T16:49:20.983Z,2.60
2022-11-14T16:52:08.733Z,1.90
2022-11-14T16:54:56.930Z,2.53
2022-11-14T16:57:43.765Z,3.13
2022-11-14T17:00:30.472Z,2.60
2022-11-14T17:03:18.151Z,2.83
2022-11-14T17:06:09.938Z,3.00
2022-11-14T17:08:56.874Z,2.20
2022-11-14T17:11:45.554Z,3.27
2022-11-14T17:14:32.092Z,2.77
2022-11-14T17:17:18.929Z,3.80
2022-11-14T17:20:06.463Z,3.20
2022-11-14T17:22:53.055Z,3.20
2022-11-14T17:25:39.841Z,3.73
2022-11-14T17:28:28.144Z,3.97
2022-11-14T17:31:15.927Z,3.20
2022-11-14T17:34:03.053Z,3.27
2022-11-14T17:36:49.544Z,2.63
2022-11-14T17:39:36.229Z,2.90
2022-11-14T17:42:22.986Z,3.30
2022-11-14T17:45:11.520Z,3.40
2022-11-14T17:47:58.297Z,3.07
2022-11-14T17:50:44.655Z,2.37
2022-11-14T17:53:33.563Z,2.70
2022-11-14T17:56:22.188Z,2.67
2022-11-14T17:59:09.135Z,2.97
2022-11-14T18:01:59.964Z,3.07
2022-11-14T18:04:48.007Z,2.50
2022-11-14T18:07:34.561Z,3.17
2022-11-14T18:10:21.267Z,2.77
2022-11-14T18:13:08.185Z,2.70
2022-11-14T18:15:54.789Z,2.80
2022-11-14T18:18:42.649Z,2.63
2022-11-14T18:21:32.644Z,3.00
2022-11-14T18:24:19.167Z,2.70
2022-11-14T18:27:05.671Z,3.00
2022-11-14T18:29:52.648Z,2.87
2022-11-14T18:32:39.248Z,2.90
2022-11-14T18:35:27.172Z,2.80
2022-11-14T18:38:13.561Z,2.53
2022-11-14T18:41:01.261Z,2.53
2022-11-14T18:43:48.174Z,2.60
2022-11-14T18:46:37.512Z,2.43
2022-11-14T18:49:28.277Z,2.67
2022-11-14T18:52:17.718Z,3.20
2022-11-14T18:55:05.530Z,2.37
2022-11-14T18:57:52.399Z,2.33
2022-11-14T19:00:39.322Z,2.83
2022-11-14T19:03:25.941Z,2.30
2022-11-14T19:06:13.853Z,2.70
2022-11-14T19:09:06.880Z,2.50
2022-11-14T19:12:14.870Z,2.00
2022-11-14T19:15:02.200Z,2.10
2022-11-14T19:17:49.432Z,2.40
2022-11-14T19:20:35.853Z,2.03
2022-11-14T19:23:22.407Z,2.20
2022-11-14T19:26:10.392Z,2.40
2022-11-14T19:28:57.404Z,1.90
2022-11-14T19:31:44.414Z,2.17
2022-11-14T19:34:31.112Z,2.20
2022-11-14T19:37:17.536Z,2.83
2022-11-14T19:40:04.905Z,2.60
2022-11-14T19:42:55.958Z,2.47
2022-11-14T19:45:42.672Z,2.27
2022-11-14T19:48:29.313Z,2.50
2022-11-14T19:51:18.035Z,2.30
2022-11-14T19:54:05.062Z,2.63
2022-11-14T19:56:51.422Z,2.37
2022-11-14T19:59:40.635Z,2.70
2022-11-14T20:02:28.582Z,2.60
2022-11-14T20:05:15.056Z,3.10
2022-11-14T20:08:01.746Z,2.90
2022-11-14T20:10:56.106Z,3.20
2022-11-14T20:13:44.035Z,3.23
2022-11-14T20:16:33.690Z,3.03
2022-11-14T20:19:20.717Z,3.57
2022-11-14T20:22:07.363Z,3.40
2022-11-14T20:24:54.135Z,3.20
2022-11-14T20:27:40.991Z,3.20
2022-11-14T20:30:27.790Z,2.40
2022-11-14T20:33:15.617Z,2.57
2022-11-14T20:36:05.472Z,2.77
2022-11-14T20:38:53.004Z,1.97
2022-11-14T20:41:39.719Z,2.03
2022-11-14T20:44:26.273Z,1.93
2022-11-14T20:47:13.084Z,2.00
2022-11-14T20:50:01.262Z,1.93
2022-11-14T20:52:48.530Z,2.33
2022-11-14T20:55:35.466Z,3.40
2022-11-14T20:58:22.336Z,2.50
2022-11-14T21:01:09.151Z,2.40
2022-11-14T21:03:55.979Z,2.60
2022-11-14T21:06:44.247Z,2.60
2022-11-14T21:09:31.248Z,3.47
2022-11-14T21:12:18.130Z,3.70
2022-11-14T21:15:05.615Z,4.70
2022-11-14T21:17:52.926Z,5.10
2022-11-14T21:20:39.769Z,6.20
2022-11-14T21:23:28.115Z,5.30
2022-11-14T21:26:16.963Z,5.93
2022-11-14T21:29:06.024Z,5.90
2022-11-14T21:31:52.382Z,5.70
2022-11-14T21:34:39.141Z,6.00
2022-11-14T21:37:25.795Z,5.20
2022-11-14T21:40:14.258Z,4.63
2022-11-14T21:43:00.770Z,3.80
2022-11-14T21:45:55.247Z,3.20
2022-11-14T21:48:43.035Z,3.33
2022-11-14T21:51:30.047Z,3.47
2022-11-14T21:54:16.665Z,2.80
2022-11-14T21:57:09.736Z,2.57
2022-11-14T21:59:56.605Z,3.40
2022-11-14T22:03:00.770Z,3.67
2022-11-14T22:05:47.288Z,3.67
2022-11-14T22:08:34.058Z,4.00
2022-11-14T22:11:20.960Z,4.40
2022-11-14T22:14:09.343Z,3.97
2022-11-14T22:16:56.155Z,4.03
2022-11-14T22:19:42.793Z,3.20
2022-11-14T22:22:29.590Z,3.67
2022-11-14T22:25:16.196Z,3.87
2022-11-14T22:28:02.675Z,3.87
2022-11-14T22:30:50.696Z,3.03
2022-11-14T22:33:42.719Z,3.60
2022-11-14T22:36:31.907Z,3.40
2022-11-14T22:39:18.355Z,3.60
2022-11-14T22:42:05.323Z,3.00
2022-11-14T22:44:51.944Z,3.00
2022-11-14T22:47:39.960Z,3.27
2022-11-14T22:50:26.540Z,2.00
2022-11-14T22:53:13.063Z,2.43
2022-11-14T22:56:00.309Z,2.43
2022-11-14T22:58:47.377Z,2.10
2022-11-14T23:01:34.159Z,1.87
2022-11-14T23:04:22.020Z,2.00
2022-11-14T23:07:08.616Z,2.70
2022-11-14T23:09:55.257Z,1.80
2022-11-14T23:12:41.942Z,2.23
2022-11-14T23:15:30.052Z,1.87
2022-11-14T23:18:17.071Z,2.43
2022-11-14T23:21:12.596Z,2.20
2022-11-14T23:24:00.804Z,2.13
2022-11-14T23:26:47.681Z,2.90
2022-11-14T23:29:34.482Z,2.20
2022-11-14T23:32:21.383Z,1.90
2022-11-14T23:35:08.864Z,2.47
2022-11-14T23:37:57.351Z,2.10
2022-11-14T23:40:44.033Z,1.90
2022-11-14T23:43:31.415Z,2.03
2022-11-14T23:46:18.571Z,1.53
2022-11-14T23:49:05.032Z,2.10
2022-11-14T23:51:51.884Z,2.10
2022-11-14T23:54:40.194Z,2.00
2022-11-14T23:57:26.856Z,2.13
